createdAt,value
2022-11-20T00:03:09.159Z,2.86
2022-11-20T00:08:39.215Z,2.95
2022-11-20T00:14:04.287Z,2.98
2022-11-20T00:19:35.627Z,2.94
2022-11-20T00:25:01.052Z,2.90
2022-11-20T00:30:25.712Z,2.92
2022-11-20T00:35:55.849Z,2.94
2022-11-20T00:41:25.875Z,2.92
2022-11-20T00:46:54.709Z,2.89
2022-11-20T00:52:19.562Z,2.89
2022-11-20T00:57:48.646Z,2.92
2022-11-20T01:03:20.528Z,2.96
2022-11-20T01:08:56.796Z,2.93
2022-11-20T01:14:22.236Z,2.83
2022-11-20T01:19:47.080Z,2.87
2022-11-20T01:25:11.945Z,2.90
2022-11-20T01:30:35.581Z,2.97
2022-11-20T01:36:06.591Z,2.82
2022-11-20T01:41:51.324Z,2.84
2022-11-20T01:47:18.367Z,2.79
2022-11-20T01:52:47.959Z,2.72
2022-11-20T01:58:14.004Z,2.76
2022-11-20T02:03:38.030Z,2.73
2022-11-20T02:09:01.576Z,2.66
2022-11-20T02:14:26.182Z,2.69
2022-11-20T02:19:52.380Z,2.70
2022-11-20T02:25:24.088Z,2.71
2022-11-20T02:30:52.598Z,2.74
2022-11-20T02:36:18.318Z,2.77
2022-11-20T02:41:48.448Z,2.72
2022-11-20T02:47:12.852Z,2.74
2022-11-20T02:52:37.401Z,2.70
2022-11-20T02:58:08.255Z,2.67
2022-11-20T03:03:37.450Z,2.66
2022-11-20T03:09:06.916Z,2.68
2022-11-20T03:14:37.188Z,2.63
2022-11-20T03:20:06.962Z,2.48
2022-11-20T03:25:33.463Z,2.55
2022-11-20T03:31:09.566Z,2.58
2022-11-20T03:36:33.822Z,2.51
2022-11-20T03:42:02.799Z,2.47
2022-11-20T03:47:27.692Z,2.43
2022-11-20T03:52:50.856Z,2.33
2022-11-20T03:58:19.857Z,2.30
2022-11-20T04:03:50.586Z,2.24
2022-11-20T04:09:15.048Z,2.31
2022-11-20T04:14:38.554Z,2.27
2022-11-20T04:20:08.659Z,2.30
2022-11-20T04:25:32.259Z,2.26
2022-11-20T04:30:56.867Z,2.26
2022-11-20T04:36:27.747Z,2.17
2022-11-20T04:42:10.954Z,2.04
2022-11-20T04:47:39.973Z,2.06
2022-11-20T04:53:08.715Z,2.08
2022-11-20T04:58:32.319Z,2.08
2022-11-20T05:04:00.981Z,1.99
2022-11-20T05:09:26.678Z,2.06
2022-11-20T05:14:48.849Z,2.11
2022-11-20T05:20:14.239Z,2.12
2022-11-20T05:25:39.553Z,2.05
2022-11-20T05:31:10.750Z,2.06
2022-11-20T05:36:36.511Z,2.06
2022-11-20T05:42:19.559Z,2.05
2022-11-20T05:48:20.691Z,2.02
2022-11-20T05:54:03.122Z,1.99
2022-11-20T05:59:34.518Z,1.93
2022-11-20T06:04:57.655Z,1.86
2022-11-20T06:10:24.605Z,1.70
2022-11-20T06:15:52.246Z,1.49
2022-11-20T06:21:22.301Z,1.42
2022-11-20T06:26:55.067Z,1.42
2022-11-20T06:32:25.198Z,1.42
2022-11-20T06:37:51.935Z,1.45
2022-11-20T06:43:17.660Z,1.52
2022-11-20T06:48:42.429Z,1.57
2022-11-20T06:54:11.597Z,1.52
2022-11-20T06:59:40.947Z,1.42
2022-11-20T07:05:11.271Z,1.28
2022-11-20T07:10:40.409Z,1.30
2022-11-20T07:16:10.619Z,1.26
2022-11-20T07:21:41.051Z,1.04
2022-11-20T07:27:09.119Z,1.00
2022-11-20T07:32:37.382Z,1.22
2022-11-20T07:38:09.068Z,1.34
2022-11-20T07:43:41.174Z,1.39
2022-11-20T07:49:10.833Z,1.55
2022-11-20T07:54:41.168Z,1.55
2022-11-20T08:00:12.900Z,1.50
2022-11-20T08:05:41.789Z,1.43
2022-11-20T08:11:29.717Z,1.33
2022-11-20T08:16:58.950Z,1.32
2022-11-20T08:22:27.860Z,1.42
2022-11-20T08:28:00.429Z,1.39
2022-11-20T08:33:31.191Z,1.22
2022-11-20T08:38:59.833Z,1.39
2022-11-20T08:44:30.058Z,1.55
2022-11-20T08:49:58.697Z,1.74
2022-11-20T08:55:27.747Z,1.83
2022-11-20T09:00:58.400Z,1.87
2022-11-20T09:06:28.257Z,1.87
2022-11-20T09:11:56.674Z,1.93
2022-11-20T09:17:27.291Z,1.83
2022-11-20T09:22:55.462Z,1.94
2022-11-20T09:28:24.428Z,1.92
2022-11-20T09:33:55.561Z,1.93
2022-11-20T09:39:24.822Z,1.94
2022-11-20T09:45:15.341Z,2.00
2022-11-20T09:50:50.943Z,2.05
2022-11-20T09:56:22.971Z,2.05
2022-11-20T10:01:52.332Z,2.04
2022-11-20T10:07:33.455Z,2.04
2022-11-20T10:13:22.574Z,1.98
2022-11-20T10:19:08.278Z,2.07
2022-11-20T10:24:57.309Z,2.07
2022-11-20T10:30:27.087Z,1.97
2022-11-20T10:36:03.341Z,2.04
2022-11-20T10:41:35.868Z,2.09
2022-11-20T10:47:01.530Z,2.04
2022-11-20T10:52:35.175Z,1.98
2022-11-20T10:58:08.043Z,1.98
2022-11-20T11:03:33.973Z,1.90
2022-11-20T11:09:01.175Z,2.00
2022-11-20T11:14:30.847Z,2.02
2022-11-20T11:20:03.974Z,1.96
2022-11-20T11:25:34.690Z,1.91
2022-11-20T11:30:59.946Z,1.89
2022-11-20T11:36:29.523Z,1.85
2022-11-20T11:41:57.394Z,1.83
2022-11-20T11:47:34.433Z,1.90
2022-11-20T11:53:11.537Z,1.84
2022-11-20T11:58:47.931Z,1.90
2022-11-20T12:04:19.454Z,1.88
2022-11-20T12:09:54.361Z,1.90
2022-11-20T12:15:31.164Z,1.94
2022-11-20T12:21:10.957Z,1.93
2022-11-20T12:26:54.245Z,1.94
2022-11-20T12:32:54.133Z,1.97
2022-11-20T12:38:48.652Z,1.97
2022-11-20T12:44:49.687Z,2.00
2022-11-20T12:50:25.461Z,1.95
2022-11-20T12:56:01.981Z,1.96
2022-11-20T13:01:45.128Z,1.93
2022-11-20T13:07:15.443Z,1.88
2022-11-20T13:12:51.109Z,1.87
2022-11-20T13:18:19.165Z,1.82
2022-11-20T13:23:47.959Z,1.77
2022-11-20T13:29:20.175Z,1.71
2022-11-20T13:34:58.100Z,1.63
2022-11-20T13:40:25.037Z,1.67
2022-11-20T13:45:59.589Z,1.67
2022-11-20T13:51:36.291Z,1.60
2022-11-20T13:57:09.917Z,1.63
2022-11-20T14:02:34.784Z,1.65
2022-11-20T14:08:00.106Z,1.68
2022-11-20T14:13:24.007Z,1.67
2022-11-20T14:18:54.856Z,1.60
2022-11-20T14:24:25.602Z,1.64
2022-11-20T14:29:54.974Z,1.68
2022-11-20T14:35:25.200Z,1.68
2022-11-20T14:40:54.062Z,1.73
2022-11-20T14:46:23.735Z,1.75
2022-11-20T14:51:49.281Z,1.76
2022-11-20T14:57:23.997Z,1.78
2022-11-20T15:02:49.751Z,1.78
2022-11-20T15:08:17.047Z,1.80
2022-11-20T15:13:41.472Z,1.88
2022-11-20T15:19:19.230Z,1.94
2022-11-20T15:24:49.489Z,1.95
2022-11-20T15:30:19.185Z,1.88
2022-11-20T15:35:47.972Z,1.88
2022-11-20T15:41:12.453Z,1.88
2022-11-20T15:46:41.047Z,1.87
2022-11-20T15:52:11.106Z,1.84
2022-11-20T15:57:41.408Z,1.92
2022-11-20T16:03:13.273Z,1.95
2022-11-20T16:08:36.524Z,2.02
2022-11-20T16:14:17.702Z,2.07
2022-11-20T16:19:47.008Z,2.05
2022-11-20T16:25:16.114Z,2.07
2022-11-20T16:30:46.848Z,2.11
2022-11-20T16:36:17.255Z,2.08
2022-11-20T16:41:45.615Z,2.09
2022-11-20T16:47:15.864Z,2.05
2022-11-20T16:52:45.213Z,2.05
2022-11-20T16:58:14.125Z,2.10
2022-11-20T17:03:46.362Z,1.95
2022-11-20T17:09:15.370Z,2.06
2022-11-20T17:14:44.296Z,2.07
2022-11-20T17:20:14.670Z,2.14
2022-11-20T17:25:43.815Z,2.07
2022-11-20T17:31:17.449Z,2.17
2022-11-20T17:36:47.102Z,2.16
2022-11-20T17:42:27.804Z,2.12
2022-11-20T17:47:57.102Z,2.18
2022-11-20T17:53:27.327Z,2.22
2022-11-20T17:58:55.829Z,2.33
2022-11-20T18:04:25.273Z,2.42
2022-11-20T18:09:56.483Z,2.52
2022-11-20T18:15:26.201Z,2.60
2022-11-20T18:20:54.864Z,2.58
2022-11-20T18:26:25.947Z,2.72
2022-11-20T18:31:55.355Z,2.82
2022-11-20T18:37:24.224Z,2.91
2022-11-20T18:43:11.825Z,2.96
2022-11-20T18:48:41.159Z,3.01
2022-11-20T18:54:10.271Z,2.99
2022-11-20T18:59:40.807Z,3.06
2022-11-20T19:05:10.210Z,3.15
2022-11-20T19:10:38.973Z,3.18
2022-11-20T19:16:11.438Z,3.25
2022-11-20T19:21:41.119Z,3.30
2022-11-20T19:27:09.677Z,3.32
2022-11-20T19:32:40.311Z,3.40
2022-11-20T19:38:08.994Z,3.46
2022-11-20T19:43:38.400Z,3.55
2022-11-20T19:49:03.636Z,3.61
2022-11-20T19:54:27.256Z,3.65
2022-11-20T19:59:51.046Z,3.71
2022-11-20T20:05:15.764Z,3.75
2022-11-20T20:10:40.093Z,3.80
2022-11-20T20:16:09.378Z,3.84
2022-11-20T20:21:37.370Z,3.88
2022-11-20T20:27:06.247Z,3.86
2022-11-20T20:32:35.329Z,3.88
2022-11-20T20:38:06.349Z,3.85
2022-11-20T20:43:31.446Z,3.91
2022-11-20T20:48:57.532Z,3.97
2022-11-20T20:54:22.865Z,3.87
2022-11-20T20:59:46.368Z,3.86
2022-11-20T21:05:11.077Z,3.86
2022-11-20T21:10:41.587Z,3.93
2022-11-20T21:16:04.762Z,4.04
2022-11-20T21:21:51.848Z,3.92
2022-11-20T21:27:22.424Z,3.90
2022-11-20T21:32:48.161Z,3.92
2022-11-20T21:38:12.572Z,3.91
2022-11-20T21:43:38.142Z,3.90
2022-11-20T21:49:06.660Z,4.04
2022-11-20T21:54:31.438Z,4.14
2022-11-20T22:00:00.817Z,4.20
2022-11-20T22:05:30.074Z,4.19
2022-11-20T22:11:01.128Z,4.12
2022-11-20T22:16:31.382Z,4.11
2022-11-20T22:21:54.707Z,4.14
2022-11-20T22:27:18.720Z,4.12
2022-11-20T22:32:45.178Z,4.12
2022-11-20T22:38:14.177Z,4.17
2022-11-20T22:43:43.643Z,4.21
2022-11-20T22:49:14.167Z,4.28
2022-11-20T22:54:42.977Z,4.39
2022-11-20T23:00:12.813Z,4.51
2022-11-20T23:05:43.541Z,4.61
2022-11-20T23:11:14.858Z,4.70
2022-11-20T23:16:44.479Z,4.79
2022-11-20T23:22:14.284Z,4.82
2022-11-20T23:27:43.162Z,4.91
2022-11-20T23:33:12.119Z,5.04
2022-11-20T23:38:42.677Z,5.13
2022-11-20T23:44:11.460Z,5.67
2022-11-20T23:49:39.683Z,6.15
2022-11-20T23:55:10.898Z,6.32
